Time;durP1;ratioP1;P1;durP2;ratioP2;P2;SDS_P1;SDS_P2;PMS_P1;PMS_P2;Temp;Humidity;BMP_temperature;BMP_pressure;BME280_temperature;BME280_humidity;BME280_pressure;Samples;Min_cycle;Max_cycle;Signal;HPM_P1;HPM_P2
2021/12/12 00:00:38;;;;;;;;;;;;;;;;;;5072223;28;45569;-74
2021/12/12 00:03:10;;;;;;;;;;;;;;;;;;5075345;28;45339;-74
2021/12/12 00:05:36;;;;;;;;;;;;;;;;;;5074746;28;44375;-74
2021/12/12 00:08:06;;;;;;;;;;;;;;;;;;5074572;28;43269;-74
2021/12/12 00:10:32;;;;;;;;;;;;;;;;;;5076117;28;46001;-73
2021/12/12 00:12:59;;;;;;;;;;;;;;;;;;5077633;28;45842;-72
2021/12/12 00:15:25;;;;;;;;;;;;;;;;;;5076131;28;44807;-73
2021/12/12 00:17:51;;;;;;;;;;;;;;;;;;5076986;28;41768;-74
2021/12/12 00:20:18;;;;;;;;;;;;;;;;;;5075375;28;42995;-73
2021/12/12 00:22:52;;;;;;;;;;;;;;;;;;5077606;28;45078;-74
2021/12/12 00:25:27;;;;;;;;;;;;;;;;;;5076371;28;47479;-74
2021/12/12 00:27:54;;;;;;;;;;;;;;;;;;5076038;28;43029;-73
2021/12/12 00:30:20;;;;;;;;;;;;;;;;;;5075005;28;44762;-73
2021/12/12 00:32:49;;;;;;;;;;;;;;;;;;5076915;28;48134;-73
2021/12/12 00:35:16;;;;;;;;;;;;;;;;;;5076656;28;44940;-73
2021/12/12 00:37:43;;;;;;;;;;;;;;;;;;5078354;28;42822;-74
2021/12/12 00:40:12;;;;;;;;;;;;;;;;;;5076382;28;46448;-74
2021/12/12 00:42:39;;;;;;;;;;;;;;;;;;5074944;28;47616;-74
2021/12/12 00:45:05;;;;;;;;;;;;;;;;;;5076516;28;46812;-73
2021/12/12 00:47:34;;;;;;;;;;;;;;;;;;5076697;28;43074;-73
2021/12/12 00:50:05;;;;;;;;;;;;;;;;;;5077471;28;43478;-73
2021/12/12 00:52:32;;;;;;;;;;;;;;;;;;5075236;28;47022;-74
2021/12/12 00:54:58;;;;;;;;;;;;;;;;;;5075590;28;46331;-74
2021/12/12 00:57:25;;;;;;;;;;;;;;;;;;5076143;28;44483;-73
2021/12/12 00:59:54;;;;;;;;;;;;;;;;;;5077726;28;45260;-74
2021/12/12 01:02:24;;;;;;;;;;;;;;;;;;5056137;28;45715;-73
2021/12/12 01:04:51;;;;;;;;;;;;;;;;;;5055487;28;47684;-73
2021/12/12 01:07:18;;;;;;;;;;;;;;;;;;5073031;28;45258;-73
2021/12/12 01:09:44;;;;;;;;;;;;;;;;;;5073751;28;45731;-73
2021/12/12 01:12:11;;;;;;;;;;;;;;;;;;5055625;28;46548;-74
2021/12/12 01:14:39;;;;;;;;;;;;;;;;;;5056582;28;45356;-74
2021/12/12 01:17:06;;;;;;;;;;;;;;;;;;5072491;28;44399;-73
2021/12/12 01:19:36;;;;;;;;;;;;;;;;;;5072328;28;45184;-74
2021/12/12 01:22:03;;;;;;;;;;;;;;;;;;5056415;28;47015;-74
2021/12/12 01:24:29;;;;;;;;;;;;;;;;;;5071039;28;48417;-74
2021/12/12 01:26:56;;;;;;;;;;;;;;;;;;5072503;28;42602;-74
2021/12/12 01:29:22;;;;;;;;;;;;;;;;;;5071592;28;44890;-74
2021/12/12 01:31:49;;;;;;;;;;;;;;;;;;5056334;28;47108;-74
2021/12/12 01:34:20;;;;;;;;;;;;;;;;;;5055883;28;45311;-74
2021/12/12 01:37:04;;;;;;;;;;;;;;;;;;5055990;28;44077;-74
2021/12/12 01:39:30;;;;;;;;;;;;;;;;;;5071226;28;45113;-75
2021/12/12 01:41:56;;;;;;;;;;;;;;;;;;5055651;28;45151;-74
2021/12/12 01:44:23;;;;;;;;;;;;;;;;;;5054480;28;49119;-74
2021/12/12 01:46:49;;;;;;;;;;;;;;;;;;5055236;28;44052;-74
2021/12/12 01:49:16;;;;;;;;;;;;;;;;;;5054986;28;45885;-74
2021/12/12 01:51:42;;;;;;;;;;;;;;;;;;5071593;28;48305;-75
2021/12/12 01:54:09;;;;;;;;;;;;;;;;;;5072367;28;45245;-74
2021/12/12 01:56:42;;;;;;;;;;;;;;;;;;5055383;28;44892;-74
2021/12/12 01:59:08;;;;;;;;;;;;;;;;;;5071267;28;43759;-74
2021/12/12 02:01:34;;;;;;;;;;;;;;;;;;5055133;28;48961;-74
2021/12/12 02:04:01;;;;;;;;;;;;;;;;;;5070884;28;45778;-74
2021/12/12 02:06:27;;;;;;;;;;;;;;;;;;5070417;28;42543;-74
2021/12/12 02:08:54;;;;;;;;;;;;;;;;;;5069602;28;48054;-75
2021/12/12 02:11:20;;;;;;;;;;;;;;;;;;5070199;28;45687;-74
2021/12/12 02:13:47;;;;;;;;;;;;;;;;;;5069324;28;47563;-74
2021/12/12 02:16:13;;;;;;;;;;;;;;;;;;5070120;28;41035;-74
2021/12/12 02:18:41;;;;;;;;;;;;;;;;;;5068704;28;46031;-74
2021/12/12 02:21:13;;;;;;;;;;;;;;;;;;5053614;28;45857;-74
2021/12/12 02:37:24;;;;;;;;;;;;;;;;;;5055001;28;40952;-74
2021/12/12 02:39:50;;;;;;;;;;;;;;;;;;5069879;28;46400;-74
2021/12/12 02:42:18;;;;;;;;;;;;;;;;;;5070217;28;46169;-74
2021/12/12 02:44:44;;;;;;;;;;;;;;;;;;5069662;28;46046;-74
2021/12/12 02:47:13;;;;;;;;;;;;;;;;;;5053885;28;43405;-71
2021/12/12 02:49:56;;;;;;;;;;;;;;;;;;5068569;28;44491;-72
2021/12/12 02:52:22;;;;;;;;;;;;;;;;;;5069584;28;46190;-71
2021/12/12 02:54:50;;;;;;;;;;;;;;;;;;5053319;28;46256;-73
2021/12/12 02:57:16;;;;;;;;;;;;;;;;;;5053579;28;41947;-74
2021/12/12 02:59:50;;;;;;;;;;;;;;;;;;5053513;28;45123;-74
2021/12/12 03:02:22;;;;;;;;;;;;;;;;;;5053878;28;46346;-74
2021/12/12 03:04:51;;;;;;;;;;;;;;;;;;5053580;28;47993;-74
2021/12/12 03:07:18;;;;;;;;;;;;;;;;;;5053564;28;42468;-74
2021/12/12 03:09:44;;;;;;;;;;;;;;;;;;5054118;28;46386;-74
2021/12/12 03:12:11;;;;;;;;;;;;;;;;;;5054553;28;49508;-74
2021/12/12 03:14:37;;;;;;;;;;;;;;;;;;5054186;28;44605;-74
2021/12/12 03:17:03;;;;;;;;;;;;;;;;;;5053741;28;42240;-74
2021/12/12 03:19:30;;;;;;;;;;;;;;;;;;5055426;28;43946;-74
2021/12/12 03:21:56;;;;;;;;;;;;;;;;;;5053810;28;49842;-74
2021/12/12 03:24:22;;;;;;;;;;;;;;;;;;5054808;28;45563;-74
2021/12/12 03:26:49;;;;;;;;;;;;;;;;;;5054895;28;42502;-74
2021/12/12 03:29:15;;;;;;;;;;;;;;;;;;5052970;28;44188;-74
2021/12/12 03:31:41;;;;;;;;;;;;;;;;;;5055029;28;47384;-74
2021/12/12 03:34:08;;;;;;;;;;;;;;;;;;5069259;28;47344;-74
2021/12/12 03:36:34;;;;;;;;;;;;;;;;;;5075535;28;42890;-74
2021/12/12 03:39:00;;;;;;;;;;;;;;;;;;5077326;28;45410;-74
2021/12/12 03:41:27;;;;;;;;;;;;;;;;;;5076611;28;49359;-74
2021/12/12 03:43:53;;;;;;;;;;;;;;;;;;5078328;28;44833;-74
2021/12/12 03:46:19;;;;;;;;;;;;;;;;;;5077842;28;44041;-75
2021/12/12 03:48:46;;;;;;;;;;;;;;;;;;5077065;28;43778;-74
2021/12/12 03:51:13;;;;;;;;;;;;;;;;;;5078463;28;48219;-75
2021/12/12 03:53:39;;;;;;;;;;;;;;;;;;5077423;28;47968;-74
2021/12/12 03:56:06;;;;;;;;;;;;;;;;;;5076946;28;42612;-74
2021/12/12 03:58:32;;;;;;;;;;;;;;;;;;5076119;28;42857;-75
2021/12/12 04:00:59;;;;;;;;;;;;;;;;;;5076259;28;49475;-74
2021/12/12 04:03:25;;;;;;;;;;;;;;;;;;5077097;28;46265;-74
2021/12/12 04:05:51;;;;;;;;;;;;;;;;;;5077194;28;40920;-74
2021/12/12 04:08:18;;;;;;;;;;;;;;;;;;5075318;28;43666;-74
2021/12/12 04:10:44;;;;;;;;;;;;;;;;;;5075737;28;46574;-74
2021/12/12 04:13:11;;;;;;;;;;;;;;;;;;5075497;28;47328;-74
2021/12/12 04:15:37;;;;;;;;;;;;;;;;;;5077322;28;42719;-75
2021/12/12 04:18:04;;;;;;;;;;;;;;;;;;5076509;28;48138;-75
2021/12/12 04:20:34;;;;;;;;;;;;;;;;;;5076546;28;44483;-75
2021/12/12 04:23:04;;;;;;;;;;;;;;;;;;5076074;28;44570;-74
2021/12/12 04:25:33;;;;;;;;;;;;;;;;;;5077073;28;44658;-75
2021/12/12 04:28:02;;;;;;;;;;;;;;;;;;5077641;28;44378;-75
2021/12/12 04:30:30;;;;;;;;;;;;;;;;;;5077154;28;44353;-75
2021/12/12 04:32:59;;;;;;;;;;;;;;;;;;5076672;28;47264;-75
2021/12/12 04:35:27;;;;;;;;;;;;;;;;;;5079070;28;43731;-73
2021/12/12 04:37:54;;;;;;;;;;;;;;;;;;5076015;28;45441;-73
2021/12/12 04:40:21;;;;;;;;;;;;;;;;;;5076884;28;47023;-73
2021/12/12 04:42:48;;;;;;;;;;;;;;;;;;5076601;28;45066;-73
2021/12/12 04:45:17;;;;;;;;;;;;;;;;;;5076451;28;39709;-73
2021/12/12 04:50:31;;;;;;;;;;;;;;;;;;5075838;28;48123;-73
2021/12/12 04:52:58;;;;;;;;;;;;;;;;;;5076737;28;48194;-73
2021/12/12 04:55:24;;;;;;;;;;;;;;;;;;5075920;28;44902;-73
2021/12/12 04:57:50;;;;;;;;;;;;;;;;;;5076352;28;44519;-73
2021/12/12 05:00:17;;;;;;;;;;;;;;;;;;5074865;28;47652;-73
2021/12/12 05:02:43;;;;;;;;;;;;;;;;;;5075607;28;44902;-73
2021/12/12 05:05:10;;;;;;;;;;;;;;;;;;5075216;28;43036;-73
2021/12/12 05:07:36;;;;;;;;;;;;;;;;;;5076554;28;44360;-73
2021/12/12 05:10:02;;;;;;;;;;;;;;;;;;5075933;28;48357;-73
2021/12/12 05:12:29;;;;;;;;;;;;;;;;;;5076622;28;47400;-73
2021/12/12 05:14:55;;;;;;;;;;;;;;;;;;5076563;28;44983;-73
2021/12/12 05:17:21;;;;;;;;;;;;;;;;;;5076527;28;45386;-73
2021/12/12 05:19:48;;;;;;;;;;;;;;;;;;5076102;28;47381;-73
2021/12/12 05:22:14;;;;;;;;;;;;;;;;;;5075031;28;45185;-72
2021/12/12 05:24:40;;;;;;;;;;;;;;;;;;5076607;28;43936;-72
2021/12/12 05:27:07;;;;;;;;;;;;;;;;;;5076879;28;45820;-73
2021/12/12 05:29:35;;;;;;;;;;;;;;;;;;5077583;28;47294;-73
2021/12/12 05:32:01;;;;;;;;;;;;;;;;;;5076663;28;47150;-73
2021/12/12 05:34:30;;;;;;;;;;;;;;;;;;5076762;28;44063;-74
2021/12/12 05:36:57;;;;;;;;;;;;;;;;;;5076867;28;45328;-74
2021/12/12 05:39:24;;;;;;;;;;;;;;;;;;5076509;28;49103;-74
2021/12/12 05:41:50;;;;;;;;;;;;;;;;;;5076754;28;44055;-75
2021/12/12 05:44:16;;;;;;;;;;;;;;;;;;5075951;28;44790;-75
2021/12/12 05:46:43;;;;;;;;;;;;;;;;;;5075334;28;43970;-75
2021/12/12 05:49:10;;;;;;;;;;;;;;;;;;5074864;28;46355;-75
2021/12/12 05:51:36;;;;;;;;;;;;;;;;;;5075372;28;45359;-75
2021/12/12 05:54:02;;;;;;;;;;;;;;;;;;5075707;28;43599;-73
2021/12/12 05:56:29;;;;;;;;;;;;;;;;;;5076826;28;43694;-74
2021/12/12 05:58:55;;;;;;;;;;;;;;;;;;5075767;28;45836;-74
2021/12/12 06:01:21;;;;;;;;;;;;;;;;;;5074985;28;46744;-74
2021/12/12 06:03:48;;;;;;;;;;;;;;;;;;5075124;28;46586;-74
2021/12/12 06:06:14;;;;;;;;;;;;;;;;;;5075575;28;41592;-74
2021/12/12 06:08:41;;;;;;;;;;;;;;;;;;5075309;28;46454;-73
2021/12/12 06:11:08;;;;;;;;;;;;;;;;;;5076115;28;45569;-73
2021/12/12 06:13:34;;;;;;;;;;;;;;;;;;5076829;28;43560;-74
2021/12/12 06:16:01;;;;;;;;;;;;;;;;;;5075787;28;44100;-74
2021/12/12 06:18:27;;;;;;;;;;;;;;;;;;5076364;28;45540;-73
2021/12/12 06:20:54;;;;;;;;;;;;;;;;;;5077722;28;45401;-73
2021/12/12 06:23:20;;;;;;;;;;;;;;;;;;5076202;28;44299;-73
2021/12/12 06:25:46;;;;;;;;;;;;;;;;;;5075800;28;43510;-73
2021/12/12 06:28:13;;;;;;;;;;;;;;;;;;5078427;28;45751;-74
2021/12/12 06:30:39;;;;;;;;;;;;;;;;;;5077335;28;47507;-74
2021/12/12 06:33:05;;;;;;;;;;;;;;;;;;5077224;28;43987;-74
2021/12/12 06:35:32;;;;;;;;;;;;;;;;;;5075699;28;43645;-74
2021/12/12 06:37:58;;;;;;;;;;;;;;;;;;5076704;28;47559;-73
2021/12/12 06:40:24;;;;;;;;;;;;;;;;;;5075606;28;46765;-73
2021/12/12 06:42:53;;;;;;;;;;;;;;;;;;5075140;28;43712;-74
2021/12/12 06:45:20;;;;;;;;;;;;;;;;;;5074541;28;44305;-74
2021/12/12 06:47:46;;;;;;;;;;;;;;;;;;5074440;28;44466;-74
2021/12/12 06:50:12;;;;;;;;;;;;;;;;;;5075080;28;45260;-74
2021/12/12 06:52:39;;;;;;;;;;;;;;;;;;5074544;28;42606;-74
2021/12/12 06:55:05;;;;;;;;;;;;;;;;;;5074952;28;44199;-74
2021/12/12 06:57:31;;;;;;;;;;;;;;;;;;5074208;28;45501;-74
2021/12/12 06:59:57;;;;;;;;;;;;;;;;;;5075445;28;44799;-74
2021/12/12 07:02:24;;;;;;;;;;;;;;;;;;5075215;28;44915;-74
2021/12/12 07:04:52;;;;;;;;;;;;;;;;;;5074837;28;44215;-74
2021/12/12 07:07:19;;;;;;;;;;;;;;;;;;5074112;28;48374;-74
2021/12/12 07:09:45;;;;;;;;;;;;;;;;;;5074284;28;43977;-74
2021/12/12 07:12:12;;;;;;;;;;;;;;;;;;5076867;28;42972;-73
2021/12/12 07:14:39;;;;;;;;;;;;;;;;;;5077006;28;45183;-73
2021/12/12 07:17:05;;;;;;;;;;;;;;;;;;5077816;28;46933;-73
2021/12/12 07:19:31;;;;;;;;;;;;;;;;;;5077126;28;45073;-73
2021/12/12 07:21:59;;;;;;;;;;;;;;;;;;5076938;28;43444;-73
2021/12/12 07:24:27;;;;;;;;;;;;;;;;;;5076540;28;45594;-73
2021/12/12 07:26:53;;;;;;;;;;;;;;;;;;5076610;28;47993;-73
2021/12/12 07:29:19;;;;;;;;;;;;;;;;;;5076022;28;47350;-73
2021/12/12 07:31:51;;;;;;;;;;;;;;;;;;5076019;28;43611;-74
2021/12/12 07:34:18;;;;;;;;;;;;;;;;;;5075322;28;43765;-73
2021/12/12 07:36:44;;;;;;;;;;;;;;;;;;5076388;28;47324;-74
2021/12/12 07:39:11;;;;;;;;;;;;;;;;;;5077011;28;44937;-73
2021/12/12 07:41:37;;;;;;;;;;;;;;;;;;5076989;28;42254;-73
2021/12/12 07:44:03;;;;;;;;;;;;;;;;;;5076682;28;46280;-72
2021/12/12 07:46:30;;;;;;;;;;;;;;;;;;5075712;28;46871;-72
2021/12/12 07:48:56;;;;;;;;;;;;;;;;;;5077619;28;44725;-73
2021/12/12 07:51:23;;;;;;;;;;;;;;;;;;5076959;28;42499;-73
2021/12/12 07:53:52;;;;;;;;;;;;;;;;;;5078580;28;45101;-74
2021/12/12 07:56:18;;;;;;;;;;;;;;;;;;5078136;28;48034;-73
2021/12/12 07:58:45;;;;;;;;;;;;;;;;;;5078205;28;48137;-74
2021/12/12 08:01:16;;;;;;;;;;;;;;;;;;5077475;28;42284;-73
2021/12/12 08:03:44;;;;;;;;;;;;;;;;;;5076398;28;43999;-75
2021/12/12 08:06:15;;;;;;;;;;;;;;;;;;5076625;28;44757;-74
2021/12/12 08:08:42;;;;;;;;;;;;;;;;;;5077154;28;44461;-74
2021/12/12 08:11:09;;;;;;;;;;;;;;;;;;5076744;28;44034;-74
2021/12/12 08:13:35;;;;;;;;;;;;;;;;;;5076990;28;42667;-74
2021/12/12 08:16:02;;;;;;;;;;;;;;;;;;5078071;28;46277;-74
2021/12/12 08:18:30;;;;;;;;;;;;;;;;;;5077884;28;44939;-73
2021/12/12 08:21:01;;;;;;;;;;;;;;;;;;5077504;28;42691;-72
2021/12/12 08:23:29;;;;;;;;;;;;;;;;;;5077939;28;43906;-74
2021/12/12 08:25:55;;;;;;;;;;;;;;;;;;5076727;28;46232;-74
2021/12/12 08:28:23;;;;;;;;;;;;;;;;;;5076513;28;43656;-74
2021/12/12 08:30:49;;;;;;;;;;;;;;;;;;5075932;28;44758;-74
2021/12/12 08:33:15;;;;;;;;;;;;;;;;;;5076360;28;45893;-74
2021/12/12 08:35:42;;;;;;;;;;;;;;;;;;5076445;28;50271;-74
2021/12/12 08:38:08;;;;;;;;;;;;;;;;;;5076369;28;47416;-74
2021/12/12 08:40:37;;;;;;;;;;;;;;;;;;5076744;28;42607;-74
2021/12/12 08:43:09;;;;;;;;;;;;;;;;;;5075904;28;46650;-74
2021/12/12 08:45:35;;;;;;;;;;;;;;;;;;5078194;28;45485;-74
2021/12/12 08:48:04;;;;;;;;;;;;;;;;;;5076150;28;45846;-75
2021/12/12 08:50:36;;;;;;;;;;;;;;;;;;5077286;28;42685;-73
2021/12/12 08:53:03;;;;;;;;;;;;;;;;;;5076489;28;44490;-73
2021/12/12 08:55:35;;;;;;;;;;;;;;;;;;5077597;28;47234;-73
2021/12/12 08:58:14;;;;;;;;;;;;;;;;;;5076153;28;47172;-73
2021/12/12 09:00:41;;;;;;;;;;;;;;;;;;5076641;28;45386;-73
2021/12/12 09:03:07;;;;;;;;;;;;;;;;;;5075053;28;45404;-73
2021/12/12 09:05:33;;;;;;;;;;;;;;;;;;5076978;28;47454;-74
2021/12/12 09:08:11;;;;;;;;;;;;;;;;;;5077393;28;46383;-74
2021/12/12 09:10:38;;;;;;;;;;;;;;;;;;5076616;28;42979;-74
2021/12/12 09:13:06;;;;;;;;;;;;;;;;;;5077529;28;41664;-73
2021/12/12 09:15:32;;;;;;;;;;;;;;;;;;5077547;28;49104;-74
2021/12/12 09:17:59;;;;;;;;;;;;;;;;;;5078810;28;45072;-74
2021/12/12 09:20:32;;;;;;;;;;;;;;;;;;5079159;28;44013;-73
2021/12/12 09:23:00;;;;;;;;;;;;;;;;;;5079229;28;43481;-73
2021/12/12 09:25:34;;;;;;;;;;;;;;;;;;5078382;28;47263;-72
2021/12/12 09:28:00;;;;;;;;;;;;;;;;;;5078757;28;45446;-73
2021/12/12 09:30:28;;;;;;;;;;;;;;;;;;5077948;28;43812;-73
2021/12/12 09:32:57;;;;;;;;;;;;;;;;;;5077135;28;43263;-74
2021/12/12 09:35:24;;;;;;;;;;;;;;;;;;5078773;28;44326;-74
2021/12/12 09:37:50;;;;;;;;;;;;;;;;;;5079621;28;46216;-73
2021/12/12 09:40:17;;;;;;;;;;;;;;;;;;5076036;28;45272;-74
2021/12/12 09:42:44;;;;;;;;;;;;;;;;;;5076066;28;44075;-74
2021/12/12 09:45:13;;;;;;;;;;;;;;;;;;5059865;28;45752;-74
2021/12/12 09:48:03;;;;;;;;;;;;;;;;;;5060655;28;47667;-73
2021/12/12 09:53:15;;;;;;;;;;;;;;;;;;5059231;28;45384;-73
2021/12/12 09:55:41;;;;;;;;;;;;;;;;;;5088993;28;48743;-73
2021/12/12 09:58:09;;;;;;;;;;;;;;;;;;5058237;28;47374;-73
2021/12/12 10:00:35;;;;;;;;;;;;;;;;;;5089928;28;44782;-73
2021/12/12 10:03:02;;;;;;;;;;;;;;;;;;5057973;28;45622;-74
2021/12/12 10:05:29;;;;;;;;;;;;;;;;;;5089291;28;48205;-73
2021/12/12 10:07:56;;;;;;;;;;;;;;;;;;5088768;28;45417;-73
2021/12/12 10:10:27;;;;;;;;;;;;;;;;;;5089997;28;45265;-74
2021/12/12 10:12:53;;;;;;;;;;;;;;;;;;5057899;28;44920;-73
2021/12/12 10:15:21;;;;;;;;;;;;;;;;;;5090685;28;44825;-73
2021/12/12 10:17:47;;;;;;;;;;;;;;;;;;5057406;28;45200;-73
2021/12/12 10:20:13;;;;;;;;;;;;;;;;;;5090634;28;44371;-73
2021/12/12 10:22:40;;;;;;;;;;;;;;;;;;5090431;28;45465;-73
2021/12/12 10:25:09;;;;;;;;;;;;;;;;;;5088630;28;45668;-74
2021/12/12 10:27:35;;;;;;;;;;;;;;;;;;5087356;28;48983;-74
2021/12/12 10:30:02;;;;;;;;;;;;;;;;;;5057093;28;41368;-74
2021/12/12 10:32:28;;;;;;;;;;;;;;;;;;5088655;28;45377;-73
2021/12/12 10:34:55;;;;;;;;;;;;;;;;;;5089183;28;49202;-74
2021/12/12 10:37:22;;;;;;;;;;;;;;;;;;5057690;28;46390;-74
2021/12/12 10:39:50;;;;;;;;;;;;;;;;;;5089547;28;43976;-73
2021/12/12 10:42:17;;;;;;;;;;;;;;;;;;5088477;28;43933;-73
2021/12/12 10:44:46;;;;;;;;;;;;;;;;;;5055490;28;47195;-73
2021/12/12 10:47:13;;;;;;;;;;;;;;;;;;5088631;28;48053;-74
2021/12/12 10:49:39;;;;;;;;;;;;;;;;;;5088444;28;42061;-74
2021/12/12 10:52:09;;;;;;;;;;;;;;;;;;5058527;28;45926;-74
2021/12/12 10:54:35;;;;;;;;;;;;;;;;;;5058130;28;48556;-74
2021/12/12 10:57:02;;;;;;;;;;;;;;;;;;5088330;28;45095;-74
2021/12/12 10:59:29;;;;;;;;;;;;;;;;;;5090667;28;43735;-74
2021/12/12 11:01:58;;;;;;;;;;;;;;;;;;5088294;28;43934;-74
2021/12/12 11:04:24;;;;;;;;;;;;;;;;;;5091413;28;47273;-74
2021/12/12 11:06:52;;;;;;;;;;;;;;;;;;5057368;28;45849;-74
2021/12/12 11:09:18;;;;;;;;;;;;;;;;;;5089905;28;42684;-73
2021/12/12 11:11:44;;;;;;;;;;;;;;;;;;5056006;28;46432;-74
2021/12/12 11:14:11;;;;;;;;;;;;;;;;;;5055971;28;46132;-74
2021/12/12 11:16:38;;;;;;;;;;;;;;;;;;5055417;28;47695;-74
2021/12/12 11:19:04;;;;;;;;;;;;;;;;;;5057225;28;42384;-75
2021/12/12 11:21:31;;;;;;;;;;;;;;;;;;5056745;28;42004;-74
2021/12/12 11:23:58;;;;;;;;;;;;;;;;;;5058073;28;47167;-74
2021/12/12 11:26:25;;;;;;;;;;;;;;;;;;5056656;28;48443;-73
2021/12/12 11:28:51;;;;;;;;;;;;;;;;;;5056102;28;40755;-74
2021/12/12 11:31:18;;;;;;;;;;;;;;;;;;5089109;28;43442;-74
2021/12/12 11:33:45;;;;;;;;;;;;;;;;;;5090217;28;48638;-74
2021/12/12 11:36:13;;;;;;;;;;;;;;;;;;5089433;28;44987;-73
2021/12/12 11:38:39;;;;;;;;;;;;;;;;;;5053968;28;46287;-75
2021/12/12 11:41:06;;;;;;;;;;;;;;;;;;5090489;28;43834;-75
2021/12/12 11:43:33;;;;;;;;;;;;;;;;;;5070206;28;47423;-75
2021/12/12 11:46:23;;;;;;;;;;;;;;;;;;5071471;28;19921;-75
2021/12/12 11:48:50;;;;;;;;;;;;;;;;;;5071256;28;44887;-74
2021/12/12 11:51:19;;;;;;;;;;;;;;;;;;5071179;28;46347;-75
2021/12/12 11:53:45;;;;;;;;;;;;;;;;;;5070039;28;48458;-75
2021/12/12 11:56:12;;;;;;;;;;;;;;;;;;5071416;28;46756;-74
2021/12/12 11:58:39;;;;;;;;;;;;;;;;;;5074823;28;42704;-74
2021/12/12 12:01:08;;;;;;;;;;;;;;;;;;5075005;28;46764;-73
2021/12/12 12:03:37;;;;;;;;;;;;;;;;;;5073859;28;45758;-73
2021/12/12 12:06:05;;;;;;;;;;;;;;;;;;5069895;28;45073;-74
2021/12/12 12:08:44;;;;;;;;;;;;;;;;;;5077489;28;44233;-73
2021/12/12 12:11:12;;;;;;;;;;;;;;;;;;5074242;28;46517;-73
2021/12/12 12:13:39;;;;;;;;;;;;;;;;;;5072916;28;47458;-73
2021/12/12 12:16:06;;;;;;;;;;;;;;;;;;5077020;28;47410;-73
2021/12/12 12:18:32;;;;;;;;;;;;;;;;;;5078047;28;43416;-73
2021/12/12 12:21:01;;;;;;;;;;;;;;;;;;5068588;28;41873;-73
2021/12/12 12:23:41;;;;;;;;;;;;;;;;;;5076243;28;46102;-73
2021/12/12 12:29:03;;;;;;;;;;;;;;;;;;5077704;28;41499;-73
2021/12/12 12:31:31;;;;;;;;;;;;;;;;;;5078616;28;43078;-73
2021/12/12 12:33:58;;;;;;;;;;;;;;;;;;5078695;28;46937;-74
2021/12/12 12:36:25;;;;;;;;;;;;;;;;;;5078303;28;47888;-73
2021/12/12 12:38:51;;;;;;;;;;;;;;;;;;5078132;28;44482;-73
2021/12/12 12:41:18;;;;;;;;;;;;;;;;;;5075311;28;42661;-73
2021/12/12 12:43:50;;;;;;;;;;;;;;;;;;5077568;28;45773;-74
2021/12/12 12:46:17;;;;;;;;;;;;;;;;;;5078055;28;46344;-73
2021/12/12 12:48:48;;;;;;;;;;;;;;;;;;5077966;28;42600;-73
2021/12/12 12:51:14;;;;;;;;;;;;;;;;;;5076585;28;45113;-73
2021/12/12 12:53:43;;;;;;;;;;;;;;;;;;5078618;28;45950;-73
2021/12/12 12:56:20;;;;;;;;;;;;;;;;;;5076769;28;44962;-73
2021/12/12 12:58:47;;;;;;;;;;;;;;;;;;5076857;28;44125;-73
2021/12/12 13:01:14;;;;;;;;;;;;;;;;;;5075779;28;45322;-73
2021/12/12 13:03:41;;;;;;;;;;;;;;;;;;5078915;28;46043;-74
2021/12/12 13:06:07;;;;;;;;;;;;;;;;;;5076376;28;45778;-73
2021/12/12 13:08:34;;;;;;;;;;;;;;;;;;5076187;28;42441;-73
2021/12/12 13:11:02;;;;;;;;;;;;;;;;;;5076699;28;42878;-73
2021/12/12 13:13:31;;;;;;;;;;;;;;;;;;5078975;28;49363;-73
2021/12/12 13:15:59;;;;;;;;;;;;;;;;;;5077905;28;46462;-73
2021/12/12 13:18:26;;;;;;;;;;;;;;;;;;5082786;28;42473;-73
2021/12/12 13:20:52;;;;;;;;;;;;;;;;;;5078083;28;44100;-73
2021/12/12 13:23:22;;;;;;;;;;;;;;;;;;5081176;28;46434;-75
2021/12/12 13:25:48;;;;;;;;;;;;;;;;;;5078550;28;49334;-74
2021/12/12 13:28:18;;;;;;;;;;;;;;;;;;5079442;28;45503;-74
2021/12/12 13:30:47;;;;;;;;;;;;;;;;;;5077446;28;46661;-73
2021/12/12 13:33:14;;;;;;;;;;;;;;;;;;5074625;28;45826;-74
2021/12/12 13:35:40;;;;;;;;;;;;;;;;;;5075374;28;48213;-73
2021/12/12 13:38:06;;;;;;;;;;;;;;;;;;5079266;28;44551;-73
2021/12/12 13:40:34;;;;;;;;;;;;;;;;;;5078861;28;44060;-73
2021/12/12 13:43:06;;;;;;;;;;;;;;;;;;5080939;28;45761;-73
2021/12/12 13:45:37;;;;;;;;;;;;;;;;;;5080148;28;48117;-74
2021/12/12 13:48:03;;;;;;;;;;;;;;;;;;5079793;28;42489;-74
2021/12/12 13:50:30;;;;;;;;;;;;;;;;;;5074557;28;45459;-67
2021/12/12 13:52:56;;;;;;;;;;;;;;;;;;5071985;28;45103;-67
2021/12/12 13:55:24;;;;;;;;;;;;;;;;;;5071230;28;46625;-67
2021/12/12 13:57:50;;;;;;;;;;;;;;;;;;5069650;28;44150;-67
2021/12/12 14:00:17;;;;;;;;;;;;;;;;;;5070950;28;44119;-67
2021/12/12 14:02:43;;;;;;;;;;;;;;;;;;5072775;28;48428;-68
2021/12/12 14:05:11;;;;;;;;;;;;;;;;;;5072649;28;20555;-67
2021/12/12 14:07:38;;;;;;;;;;;;;;;;;;5072248;28;44894;-67
2021/12/12 14:10:05;;;;;;;;;;;;;;;;;;5070338;28;45237;-66
2021/12/12 14:12:33;;;;;;;;;;;;;;;;;;5070767;28;47335;-67
2021/12/12 14:15:00;;;;;;;;;;;;;;;;;;5071721;28;45715;-67
2021/12/12 14:17:32;;;;;;;;;;;;;;;;;;5063358;28;43226;-67
2021/12/12 14:19:58;;;;;;;;;;;;;;;;;;5051248;28;46283;-66
2021/12/12 14:22:24;;;;;;;;;;;;;;;;;;5050667;28;47083;-67
2021/12/12 14:24:52;;;;;;;;;;;;;;;;;;5050233;28;47523;-68
2021/12/12 14:27:18;;;;;;;;;;;;;;;;;;5067194;28;44984;-70
2021/12/12 14:29:45;;;;;;;;;;;;;;;;;;5070548;28;44112;-68
2021/12/12 14:32:11;;;;;;;;;;;;;;;;;;5069296;28;47378;-68
2021/12/12 14:34:37;;;;;;;;;;;;;;;;;;5070453;28;46176;-67
2021/12/12 14:37:03;;;;;;;;;;;;;;;;;;5070577;28;42257;-68
2021/12/12 14:39:31;;;;;;;;;;;;;;;;;;5071264;28;45275;-68
2021/12/12 14:42:00;;;;;;;;;;;;;;;;;;5070614;28;47902;-68
2021/12/12 14:44:26;;;;;;;;;;;;;;;;;;5071903;28;47365;-68
2021/12/12 14:46:52;;;;;;;;;;;;;;;;;;5072309;28;42163;-68
2021/12/12 14:49:19;;;;;;;;;;;;;;;;;;5064554;28;46131;-68
2021/12/12 14:51:46;;;;;;;;;;;;;;;;;;5081779;28;47056;-68
2021/12/12 14:54:12;;;;;;;;;;;;;;;;;;5051362;28;47250;-67
2021/12/12 14:56:41;;;;;;;;;;;;;;;;;;5066859;28;44741;-67
2021/12/12 14:59:10;;;;;;;;;;;;;;;;;;5068650;28;43916;-67
2021/12/12 15:01:37;;;;;;;;;;;;;;;;;;5052174;28;47569;-68
2021/12/12 15:04:03;;;;;;;;;;;;;;;;;;5067112;28;47223;-66
2021/12/12 15:06:29;;;;;;;;;;;;;;;;;;5051883;28;45515;-66
2021/12/12 15:08:58;;;;;;;;;;;;;;;;;;5067822;28;42743;-65
2021/12/12 15:11:24;;;;;;;;;;;;;;;;;;5052014;28;45701;-66
2021/12/12 15:13:51;;;;;;;;;;;;;;;;;;5051955;28;47500;-67
2021/12/12 15:16:19;;;;;;;;;;;;;;;;;;5052198;28;42204;-66
2021/12/12 15:18:45;;;;;;;;;;;;;;;;;;5091019;28;46470;-67
2021/12/12 15:21:12;;;;;;;;;;;;;;;;;;5090928;28;48269;-66
2021/12/12 15:23:38;;;;;;;;;;;;;;;;;;5091231;28;47229;-66
2021/12/12 15:26:06;;;;;;;;;;;;;;;;;;5092125;28;44556;-67
2021/12/12 15:28:33;;;;;;;;;;;;;;;;;;5092047;28;45341;-66
2021/12/12 15:31:01;;;;;;;;;;;;;;;;;;5091302;28;45507;-66
2021/12/12 15:33:28;;;;;;;;;;;;;;;;;;5088295;28;46359;-67
2021/12/12 15:35:58;;;;;;;;;;;;;;;;;;5089527;28;43724;-67
2021/12/12 15:38:24;;;;;;;;;;;;;;;;;;5075241;28;44314;-66
2021/12/12 15:40:51;;;;;;;;;;;;;;;;;;5075035;28;46948;-75
2021/12/12 15:43:17;;;;;;;;;;;;;;;;;;5075314;28;45431;-76
2021/12/12 15:45:45;;;;;;;;;;;;;;;;;;5074331;28;43722;-75
2021/12/12 15:48:11;;;;;;;;;;;;;;;;;;5074427;28;45377;-74
2021/12/12 15:50:38;;;;;;;;;;;;;;;;;;5073626;28;48502;-74
2021/12/12 15:53:05;;;;;;;;;;;;;;;;;;5073017;28;46118;-74
2021/12/12 15:55:33;;;;;;;;;;;;;;;;;;5074353;28;44737;-75
2021/12/12 15:58:00;;;;;;;;;;;;;;;;;;5072191;28;42080;-74
2021/12/12 16:00:27;;;;;;;;;;;;;;;;;;5073082;28;49507;-74
2021/12/12 16:02:53;;;;;;;;;;;;;;;;;;5059896;28;45371;-75
2021/12/12 16:05:21;;;;;;;;;;;;;;;;;;5076806;28;42886;-74
2021/12/12 16:08:14;;;;;;;;;;;;;;;;;;5068447;28;43340;-75
2021/12/12 16:10:59;;;;;;;;;;;;;;;;;;5064525;28;19929;-75
2021/12/12 16:13:26;;;;;;;;;;;;;;;;;;5060568;28;47374;-74
2021/12/12 16:15:56;;;;;;;;;;;;;;;;;;5067494;28;44108;-74
2021/12/12 16:18:22;;;;;;;;;;;;;;;;;;5063321;28;45383;-74
2021/12/12 16:20:49;;;;;;;;;;;;;;;;;;5062486;28;44860;-74
2021/12/12 16:23:19;;;;;;;;;;;;;;;;;;5067724;28;47737;-74
2021/12/12 16:25:49;;;;;;;;;;;;;;;;;;5061461;28;42812;-74
2021/12/12 16:28:17;;;;;;;;;;;;;;;;;;5075434;28;42643;-74
2021/12/12 16:30:46;;;;;;;;;;;;;;;;;;5072570;28;47910;-75
2021/12/12 16:33:18;;;;;;;;;;;;;;;;;;5087112;28;45414;-75
2021/12/12 16:35:45;;;;;;;;;;;;;;;;;;5056116;28;45301;-75
2021/12/12 16:38:11;;;;;;;;;;;;;;;;;;5057390;28;46573;-75
2021/12/12 16:40:39;;;;;;;;;;;;;;;;;;5070006;28;48454;-75
2021/12/12 16:43:06;;;;;;;;;;;;;;;;;;5071361;28;46182;-76
2021/12/12 16:45:34;;;;;;;;;;;;;;;;;;5071847;28;46332;-75
2021/12/12 16:48:01;;;;;;;;;;;;;;;;;;5069301;28;44833;-74
2021/12/12 16:50:29;;;;;;;;;;;;;;;;;;5053373;28;48380;-73
2021/12/12 16:52:59;;;;;;;;;;;;;;;;;;5087733;28;46254;-74
2021/12/12 16:55:36;;;;;;;;;;;;;;;;;;5073904;28;41609;-74
2021/12/12 16:58:06;;;;;;;;;;;;;;;;;;5073398;28;45414;-73
2021/12/12 17:00:36;;;;;;;;;;;;;;;;;;5073645;28;45970;-74
2021/12/12 17:03:04;;;;;;;;;;;;;;;;;;5075458;28;45360;-74
2021/12/12 17:05:32;;;;;;;;;;;;;;;;;;5073178;28;43382;-74
2021/12/12 17:08:13;;;;;;;;;;;;;;;;;;5073004;28;45112;-74
2021/12/12 17:10:40;;;;;;;;;;;;;;;;;;5073833;28;44895;-75